Time;durP1;ratioP1;P1;durP2;ratioP2;P2;SDS_P1;SDS_P2;PMS_P1;PMS_P2;Temp;Humidity;BMP_temperature;BMP_pressure;BME280_temperature;BME280_humidity;BME280_pressure;Samples;Min_cycle;Max_cycle;Signal;HPM_P1;HPM_P2
2023/04/19 00:00:11;;;;;;;29.65;17.60;;;15.30;88.40;;;;;;7385629;19;20074;-74
2023/04/19 00:02:40;;;;;;;32.45;16.15;;;15.30;88.30;;;;;;7385097;19;20006;-74
2023/04/19 00:05:10;;;;;;;27.45;17.05;;;15.30;88.00;;;;;;7384961;19;20010;-74
2023/04/19 00:07:39;;;;;;;28.92;16.85;;;15.30;87.70;;;;;;7405308;19;20011;-75
2023/04/19 00:10:09;;;;;;;27.50;17.08;;;15.30;88.10;;;;;;7382086;19;20397;-74
2023/04/19 00:12:43;;;;;;;28.15;16.48;;;15.30;88.20;;;;;;7382451;19;20026;-74
2023/04/19 00:15:12;;;;;;;26.92;16.67;;;15.30;88.00;;;;;;7381259;19;19999;-74
2023/04/19 00:17:41;;;;;;;27.70;15.65;;;15.30;88.10;;;;;;7382061;19;20394;-74
2023/04/19 00:20:11;;;;;;;33.85;16.35;;;15.30;88.30;;;;;;7381362;19;20015;-74
2023/04/19 00:22:40;;;;;;;26.73;16.13;;;15.30;88.30;;;;;;7401196;19;20026;-74
2023/04/19 00:25:12;;;;;;;30.65;16.23;;;15.30;88.00;;;;;;7380972;19;20262;-74
2023/04/19 00:27:43;;;;;;;26.27;15.50;;;15.30;88.30;;;;;;7381527;19;20027;-75
2023/04/19 00:30:13;;;;;;;27.40;15.88;;;15.30;88.20;;;;;;7381189;19;20290;-74
2023/04/19 00:32:42;;;;;;;24.83;15.50;;;15.30;88.20;;;;;;7382037;19;20288;-74
2023/04/19 00:35:11;;;;;;;25.80;15.07;;;15.30;88.10;;;;;;7381198;19;20007;-74
2023/04/19 00:37:40;;;;;;;24.85;15.35;;;15.30;88.00;;;;;;7403412;19;20011;-74
2023/04/19 00:40:11;;;;;;;27.23;15.48;;;15.30;87.90;;;;;;7383188;19;19998;-74
2023/04/19 00:42:40;;;;;;;23.90;14.85;;;15.30;87.80;;;;;;7383856;19;20010;-75
2023/04/19 00:45:13;;;;;;;27.90;15.52;;;15.30;87.80;;;;;;7382824;19;20087;-74
2023/04/19 00:47:42;;;;;;;28.13;14.85;;;15.20;88.00;;;;;;7383408;19;20010;-75
2023/04/19 00:50:12;;;;;;;26.85;15.25;;;15.30;88.00;;;;;;7381945;19;20002;-75
2023/04/19 00:52:41;;;;;;;24.60;15.25;;;15.20;88.10;;;;;;7403353;19;20357;-74
2023/04/19 00:55:10;;;;;;;22.25;13.32;;;15.20;88.10;;;;;;7384790;19;20010;-74
2023/04/19 00:57:39;;;;;;;23.42;14.70;;;15.20;88.20;;;;;;7384631;19;20039;-74
2023/04/19 01:00:14;;;;;;;26.08;14.10;;;15.20;88.20;;;;;;7381729;19;20393;-74
2023/04/19 01:02:43;;;;;;;24.90;14.70;;;15.20;88.30;;;;;;7380389;19;20011;-75
2023/04/19 01:05:12;;;;;;;26.77;14.52;;;15.20;88.20;;;;;;7381802;19;20014;-74
2023/04/19 01:07:41;;;;;;;22.27;14.00;;;15.10;88.10;;;;;;7403310;19;20014;-74
2023/04/19 01:10:10;;;;;;;25.77;14.80;;;15.10;88.30;;;;;;7381459;19;20007;-74
2023/04/19 01:12:39;;;;;;;21.50;13.98;;;15.10;88.50;;;;;;7383497;19;20106;-74
2023/04/19 01:15:09;;;;;;;26.05;14.57;;;15.10;88.40;;;;;;7382286;19;20010;-74
2023/04/19 01:17:41;;;;;;;23.45;14.38;;;15.10;88.60;;;;;;7381100;19;20003;-74
2023/04/19 01:20:11;;;;;;;24.38;14.20;;;15.00;88.50;;;;;;7379792;19;20480;-75
2023/04/19 01:22:42;;;;;;;27.55;14.23;;;15.00;88.50;;;;;;7400004;19;20322;-75
2023/04/19 01:25:11;;;;;;;24.63;14.23;;;14.90;88.70;;;;;;7379805;19;20070;-74
2023/04/19 01:27:40;;;;;;;23.13;14.00;;;15.00;88.80;;;;;;7380062;19;20020;-74
2023/04/19 01:30:10;;;;;;;25.02;14.20;;;14.90;88.70;;;;;;7380283;19;20020;-74
2023/04/19 01:32:39;;;;;;;22.25;13.27;;;14.90;89.00;;;;;;7378268;19;20006;-74
2023/04/19 01:35:09;;;;;;;20.55;13.60;;;14.90;89.00;;;;;;7379011;19;20015;-74
2023/04/19 01:37:38;;;;;;;22.75;13.82;;;14.90;88.70;;;;;;7399716;19;20006;-74
2023/04/19 01:40:10;;;;;;;23.92;13.75;;;14.90;88.60;;;;;;7379258;19;20066;-74
2023/04/19 01:42:39;;;;;;;22.15;13.25;;;14.90;88.70;;;;;;7379262;19;20070;-74
2023/04/19 01:45:09;;;;;;;24.92;13.40;;;14.90;88.60;;;;;;7379698;19;20006;-74
2023/04/19 01:47:38;;;;;;;23.05;13.70;;;14.90;89.00;;;;;;7379090;19;20987;-74
2023/04/19 01:50:08;;;;;;;22.27;13.52;;;14.80;88.70;;;;;;7379001;19;20007;-74
2023/04/19 01:52:36;;;;;;;24.30;13.07;;;14.80;88.70;;;;;;7404633;19;20011;-74
2023/04/19 01:55:05;;;;;;;20.77;13.55;;;14.80;88.60;;;;;;7378184;19;20006;-73
2023/04/19 01:57:37;;;;;;;20.45;12.60;;;14.80;88.90;;;;;;7381091;19;20011;-74
2023/04/19 02:00:07;;;;;;;21.75;13.50;;;14.80;89.00;;;;;;7379439;19;20066;-74
2023/04/19 02:02:38;;;;;;;22.45;13.15;;;14.80;89.00;;;;;;7381817;19;20003;-74
2023/04/19 02:05:07;;;;;;;20.63;12.63;;;14.80;88.80;;;;;;7379495;19;20010;-74
2023/04/19 02:07:36;;;;;;;22.60;13.27;;;14.80;88.30;;;;;;7400751;19;20010;-74
2023/04/19 02:10:05;;;;;;;18.98;12.65;;;14.80;88.40;;;;;;7379011;19;20002;-74
2023/04/19 02:12:39;;;;;;;22.88;13.27;;;14.70;88.40;;;;;;7379276;19;20012;-74
2023/04/19 02:15:09;;;;;;;22.10;12.93;;;14.70;88.70;;;;;;7379785;19;20007;-74
2023/04/19 02:17:38;;;;;;;20.80;12.93;;;14.70;89.00;;;;;;7380814;19;20390;-74
2023/04/19 02:20:09;;;;;;;23.08;13.50;;;14.70;89.10;;;;;;7380093;19;20347;-74
2023/04/19 02:22:38;;;;;;;;;;;14.70;89.10;;;;;;7408970;19;20006;-74
2023/04/19 02:25:07;;;;;;;23.20;13.02;;;14.70;89.30;;;;;;7387627;19;19907;-74
2023/04/19 02:27:38;;;;;;;19.13;12.00;;;14.70;89.40;;;;;;7387402;19;20007;-74
2023/04/19 02:30:09;;;;;;;20.55;12.52;;;14.70;89.10;;;;;;7389126;19;20015;-74
2023/04/19 02:32:38;;;;;;;20.67;13.17;;;14.60;88.80;;;;;;7390199;19;20049;-74
2023/04/19 02:35:11;;;;;;;22.98;13.00;;;14.60;89.00;;;;;;7391877;19;20037;-75
2023/04/19 02:37:40;;;;;;;21.70;12.35;;;14.60;89.10;;;;;;7409523;19;20017;-74
2023/04/19 02:40:10;;;;;;;20.90;12.48;;;14.60;89.30;;;;;;7385699;19;20248;-74
2023/04/19 02:42:41;;;;;;;21.98;12.90;;;14.60;89.20;;;;;;7385812;19;20444;-74
2023/04/19 02:45:11;;;;;;;21.38;12.70;;;14.50;89.20;;;;;;7385988;19;20040;-75
2023/04/19 02:47:40;;;;;;;18.52;12.32;;;14.50;89.30;;;;;;7385643;19;20283;-74
2023/04/19 02:50:10;;;;;;;21.73;12.93;;;14.50;89.40;;;;;;7386319;19;20011;-74
2023/04/19 02:52:39;;;;;;;22.20;12.38;;;14.50;89.20;;;;;;7404355;19;19998;-74
2023/04/19 02:55:09;;;;;;;18.00;11.18;;;14.40;89.20;;;;;;7383870;19;20063;-74
2023/04/19 02:57:37;;;;;;;22.90;12.52;;;14.40;89.10;;;;;;7385059;19;20010;-74
2023/04/19 03:00:11;;;;;;;20.77;12.10;;;14.40;89.30;;;;;;7384993;19;20386;-74
2023/04/19 03:02:40;;;;;;;18.73;11.85;;;14.30;89.70;;;;;;7386034;19;20003;-74
2023/04/19 03:05:09;;;;;;;21.02;12.13;;;14.30;89.90;;;;;;7382854;19;20013;-74
2023/04/19 03:07:38;;;;;;;22.00;12.48;;;14.30;89.70;;;;;;7406874;19;20019;-75
2023/04/19 03:10:08;;;;;;;23.48;13.25;;;14.30;89.80;;;;;;7386198;19;20027;-74
2023/04/19 03:12:36;;;;;;;25.30;12.73;;;14.30;89.80;;;;;;7386434;19;20007;-74
2023/04/19 03:15:06;;;;;;;22.08;13.02;;;14.30;90.00;;;;;;7387252;19;20024;-74
2023/04/19 03:17:37;;;;;;;20.92;12.43;;;14.20;89.60;;;;;;7386127;19;20003;-74
2023/04/19 03:20:10;;;;;;;20.13;12.18;;;14.20;89.70;;;;;;7384005;19;20288;-74
2023/04/19 03:22:39;;;;;;;24.45;12.43;;;14.20;89.90;;;;;;7406098;19;20010;-74
2023/04/19 03:25:11;;;;;;;24.10;13.20;;;14.20;89.90;;;;;;7383875;19;20683;-74
2023/04/19 03:27:40;;;;;;;20.02;12.27;;;14.10;90.00;;;;;;7383645;19;20010;-74
2023/04/19 03:30:10;;;;;;;22.27;12.38;;;14.10;89.90;;;;;;7384056;19;20006;-74
2023/04/19 03:32:41;;;;;;;19.65;12.32;;;14.10;90.00;;;;;;7382441;19;20029;-74
2023/04/19 03:35:11;;;;;;;20.48;12.63;;;14.10;90.00;;;;;;7381644;19;20006;-74
2023/04/19 03:37:39;;;;;;;19.70;12.27;;;14.10;90.10;;;;;;7405337;19;20006;-74
2023/04/19 03:40:09;;;;;;;27.80;12.68;;;14.10;90.40;;;;;;7383098;19;20023;-73
2023/04/19 03:42:38;;;;;;;24.20;13.02;;;14.10;90.00;;;;;;7383700;19;20027;-74
2023/04/19 03:45:08;;;;;;;23.80;11.95;;;14.00;89.90;;;;;;7384900;19;20410;-74
2023/04/19 03:47:36;;;;;;;21.10;12.55;;;14.00;90.00;;;;;;7384646;19;20007;-74
2023/04/19 03:50:09;;;;;;;26.25;13.93;;;14.00;90.00;;;;;;7382966;19;20391;-74
2023/04/19 03:52:37;;;;;;;23.85;11.57;;;14.00;90.10;;;;;;7405013;19;20063;-74
2023/04/19 03:55:07;;;;;;;21.75;12.63;;;14.00;90.10;;;;;;7382941;19;20093;-74
2023/04/19 03:57:36;;;;;;;21.83;13.30;;;13.90;90.10;;;;;;7383301;19;20003;-73
2023/04/19 04:00:08;;;;;;;26.80;11.98;;;14.00;90.10;;;;;;7383998;19;20011;-75
2023/04/19 04:02:39;;;;;;;20.95;12.70;;;13.90;90.00;;;;;;7383366;19;20017;-74
2023/04/19 04:05:11;;;;;;;24.48;12.48;;;13.90;90.10;;;;;;7386352;19;20011;-76
2023/04/19 04:07:39;;;;;;;22.40;13.23;;;13.90;90.10;;;;;;7408023;19;20014;-75
2023/04/19 04:10:10;;;;;;;26.85;12.85;;;13.90;90.10;;;;;;7383903;19;20312;-75
2023/04/19 04:12:38;;;;;;;20.80;12.50;;;13.90;90.10;;;;;;7383170;19;19999;-75
2023/04/19 04:15:08;;;;;;;21.90;12.23;;;13.90;90.20;;;;;;7382853;19;20404;-74
2023/04/19 04:17:37;;;;;;;25.52;12.80;;;13.90;90.20;;;;;;7383679;19;20014;-73
2023/04/19 04:20:12;;;;;;;19.60;12.70;;;13.90;90.30;;;;;;7384189;19;20014;-73
2023/04/19 04:22:45;;;;;;;21.25;13.25;;;13.90;90.30;;;;;;7407316;19;20102;-73
2023/04/19 04:25:14;;;;;;;23.33;13.63;;;13.90;90.20;;;;;;7385186;19;19998;-73
2023/04/19 04:27:43;;;;;;;26.25;13.48;;;13.90;90.20;;;;;;7382387;19;20003;-73
2023/04/19 04:30:12;;;;;;;22.85;13.55;;;13.90;90.20;;;;;;7381832;19;20020;-73
2023/04/19 04:32:42;;;;;;;21.88;12.25;;;13.90;90.10;;;;;;7382306;19;20011;-73
2023/04/19 04:35:13;;;;;;;23.63;14.23;;;13.90;90.30;;;;;;7382199;19;20003;-73
2023/04/19 04:37:42;;;;;;;28.83;14.07;;;13.90;90.30;;;;;;7401146;19;20075;-73
2023/04/19 04:40:13;;;;;;;25.20;14.20;;;13.90;90.20;;;;;;7381474;19;20006;-73
2023/04/19 04:42:44;;;;;;;20.75;13.77;;;13.90;90.30;;;;;;7383139;19;20011;-73
2023/04/19 04:45:16;;;;;;;26.65;13.73;;;13.90;90.30;;;;;;7383639;19;20003;-74
2023/04/19 04:47:46;;;;;;;24.10;13.85;;;13.90;90.20;;;;;;7381473;19;20019;-74
2023/04/19 04:50:18;;;;;;;26.25;15.35;;;13.80;90.20;;;;;;7381392;19;20070;-74
2023/04/19 04:52:46;;;;;;;29.55;14.85;;;13.80;90.30;;;;;;7403166;19;20010;-74
2023/04/19 04:55:15;;;;;;;27.88;14.55;;;13.80;90.30;;;;;;7382471;19;20020;-74
2023/04/19 04:57:44;;;;;;;28.33;14.98;;;13.80;90.30;;;;;;7383203;19;20373;-74
2023/04/19 05:00:14;;;;;;;28.10;14.32;;;13.80;90.20;;;;;;7383463;19;20066;-74
2023/04/19 05:02:43;;;;;;;26.10;14.80;;;13.80;90.40;;;;;;7382779;19;20007;-74
2023/04/19 05:05:12;;;;;;;27.88;15.25;;;13.80;90.60;;;;;;7384190;19;20014;-74
2023/04/19 05:07:43;;;;;;;26.00;15.02;;;13.70;90.50;;;;;;7402553;19;20010;-74
2023/04/19 05:10:12;;;;;;;31.85;16.08;;;13.70;90.50;;;;;;7381578;19;20078;-74
2023/04/19 05:12:41;;;;;;;32.17;16.15;;;13.70;90.40;;;;;;7383842;19;20014;-73
2023/04/19 05:15:13;;;;;;;25.38;15.60;;;13.70;90.50;;;;;;7386264;19;20011;-74
2023/04/19 05:17:42;;;;;;;27.50;15.07;;;13.70;90.50;;;;;;7385374;19;20011;-75
2023/04/19 05:20:11;;;;;;;27.70;15.85;;;13.80;90.60;;;;;;7383007;19;20354;-74
2023/04/19 05:22:43;;;;;;;28.90;14.73;;;13.80;90.60;;;;;;7402373;19;20066;-75
2023/04/19 05:25:12;;;;;;;27.00;14.10;;;13.80;90.60;;;;;;7380325;19;20007;-74
2023/04/19 05:27:41;;;;;;;25.08;15.20;;;13.90;90.60;;;;;;7381413;19;20007;-76
2023/04/19 05:30:10;;;;;;;25.58;15.13;;;13.90;90.50;;;;;;7383256;19;20002;-76
2023/04/19 05:32:39;;;;;;;29.15;16.45;;;13.90;90.40;;;;;;7384260;19;20010;-73
2023/04/19 05:35:09;;;;;;;27.55;16.00;;;13.90;90.40;;;;;;7384228;19;20010;-74
2023/04/19 05:37:40;;;;;;;31.90;15.77;;;13.90;90.40;;;;;;7402282;19;20066;-74
2023/04/19 05:40:12;;;;;;;30.65;16.60;;;14.00;90.40;;;;;;7379729;19;20007;-75
2023/04/19 05:42:41;;;;;;;29.25;16.48;;;14.00;90.50;;;;;;7380099;19;20003;-75
2023/04/19 05:45:11;;;;;;;32.83;15.05;;;14.00;90.40;;;;;;7381753;19;20010;-75
2023/04/19 05:47:40;;;;;;;28.50;14.52;;;14.10;90.20;;;;;;7379739;19;20286;-74
2023/04/19 05:50:09;;;;;;;26.15;15.50;;;14.10;90.30;;;;;;7377812;19;20007;-74
2023/04/19 05:52:38;;;;;;;26.00;15.30;;;14.10;90.30;;;;;;7400859;19;20211;-74
2023/04/19 05:55:07;;;;;;;28.00;15.43;;;14.10;90.20;;;;;;7376853;19;20090;-74
2023/04/19 05:57:39;;;;;;;23.95;15.05;;;14.10;90.20;;;;;;7378582;19;20292;-74
2023/04/19 06:00:09;;;;;;;26.52;15.88;;;14.20;90.30;;;;;;7377041;19;20031;-73
2023/04/19 06:02:38;;;;;;;26.48;15.30;;;14.20;90.20;;;;;;7378289;19;20023;-73
2023/04/19 06:05:08;;;;;;;25.92;16.00;;;14.20;90.20;;;;;;7378884;19;20058;-74
2023/04/19 06:07:36;;;;;;;25.83;16.10;;;14.20;90.10;;;;;;7400134;19;20354;-74
2023/04/19 06:10:06;;;;;;;25.27;15.32;;;14.30;90.10;;;;;;7378607;19;20010;-74
2023/04/19 06:12:34;;;;;;;26.38;14.88;;;14.30;90.10;;;;;;7379016;19;20032;-73
2023/04/19 06:15:07;;;;;;;26.98;15.52;;;14.30;90.00;;;;;;7379264;19;20255;-73
2023/04/19 06:17:36;;;;;;;23.85;15.40;;;14.40;90.00;;;;;;7378508;19;20006;-73
2023/04/19 06:20:07;;;;;;;23.13;14.88;;;14.30;90.00;;;;;;7378207;19;20559;-74
2023/04/19 06:22:36;;;;;;;26.83;15.97;;;14.40;89.90;;;;;;7400595;19;20011;-74
2023/04/19 06:25:04;;;;;;;24.70;15.35;;;14.50;90.00;;;;;;7380353;19;20113;-74
2023/04/19 06:27:33;;;;;;;29.42;16.10;;;14.50;89.80;;;;;;7381731;19;20042;-73
2023/04/19 06:30:02;;;;;;;25.73;15.85;;;14.50;89.70;;;;;;7380674;19;20006;-74
2023/04/19 06:32:33;;;;;;;26.58;15.85;;;14.50;89.90;;;;;;7380069;19;20028;-73
2023/04/19 06:35:02;;;;;;;29.40;15.95;;;14.50;89.90;;;;;;7392783;19;20011;-73
2023/04/19 06:37:31;;;;;;;27.65;15.70;;;14.50;89.70;;;;;;7398070;19;20247;-73
2023/04/19 06:40:01;;;;;;;24.75;15.32;;;14.50;89.70;;;;;;7378918;19;20304;-78
2023/04/19 06:42:30;;;;;;;29.73;16.25;;;14.60;89.70;;;;;;7379031;19;20019;-73
2023/04/19 06:44:58;;;;;;;26.05;15.77;;;14.60;89.70;;;;;;7380440;19;20010;-73
2023/04/19 06:47:27;;;;;;;28.48;15.90;;;14.60;89.60;;;;;;7381910;19;20369;-73
2023/04/19 06:49:58;;;;;;;27.10;15.07;;;14.60;89.60;;;;;;7402917;19;20003;-73
2023/04/19 06:52:27;;;;;;;29.15;15.13;;;14.60;89.50;;;;;;7377839;19;20025;-73
2023/04/19 06:54:56;;;;;;;29.08;15.90;;;14.70;89.40;;;;;;7377066;19;20019;-73
2023/04/19 06:57:25;;;;;;;25.40;15.88;;;14.70;89.20;;;;;;7377676;19;20015;-73
2023/04/19 06:59:57;;;;;;;26.58;15.75;;;14.70;89.40;;;;;;7376756;19;20432;-74
2023/04/19 07:02:26;;;;;;;27.33;15.50;;;14.70;89.40;;;;;;7377821;19;20039;-73
2023/04/19 07:04:54;;;;;;;27.75;16.65;;;14.80;89.60;;;;;;7399025;19;20117;-73
2023/04/19 07:07:26;;;;;;;34.90;17.75;;;14.80;89.70;;;;;;7380270;19;20007;-73
2023/04/19 07:09:54;;;;;;;34.85;18.15;;;14.80;89.70;;;;;;7384438;19;20016;-73
2023/04/19 07:12:23;;;;;;;34.25;20.10;;;14.90;90.00;;;;;;7384886;19;19998;-74
2023/04/19 07:14:55;;;;;;;28.83;15.60;;;14.90;89.00;;;;;;7383695;19;20011;-73
2023/04/19 07:17:23;;;;;;;31.23;16.45;;;15.00;88.80;;;;;;7383953;19;20329;-73
2023/04/19 07:19:52;;;;;;;26.77;15.52;;;14.90;88.80;;;;;;7403687;19;20011;-73
2023/04/19 07:22:21;;;;;;;27.23;15.25;;;15.00;88.70;;;;;;7384363;19;19999;-74
2023/04/19 07:24:55;;;;;;;32.63;15.77;;;15.00;88.80;;;;;;7382828;19;20058;-73
2023/04/19 07:27:23;;;;;;;24.92;15.45;;;15.00;88.90;;;;;;7384598;19;20101;-73
2023/04/19 07:29:52;;;;;;;25.75;15.63;;;15.00;88.90;;;;;;7384670;19;20020;-73
2023/04/19 07:32:21;;;;;;;26.98;15.02;;;15.10;88.60;;;;;;7385593;19;20392;-73
2023/04/19 07:34:50;;;;;;;26.30;15.93;;;15.10;88.70;;;;;;7406326;19;20011;-74
2023/04/19 07:37:19;;;;;;;26.88;15.15;;;15.10;88.60;;;;;;7385943;19;20228;-73
2023/04/19 07:39:48;;;;;;;30.60;15.63;;;15.10;88.40;;;;;;7387307;19;20006;-73
2023/04/19 07:42:19;;;;;;;32.83;15.93;;;15.20;88.30;;;;;;7387622;19;20019;-73
2023/04/19 07:44:47;;;;;;;29.73;15.50;;;15.20;88.20;;;;;;7386549;19;20011;-73
2023/04/19 07:47:16;;;;;;;31.23;16.73;;;15.20;88.00;;;;;;7385241;19;20046;-73
2023/04/19 07:49:45;;;;;;;36.95;16.42;;;15.30;88.20;;;;;;7405203;19;20062;-73
2023/04/19 07:52:13;;;;;;;25.20;14.60;;;15.30;88.00;;;;;;7383219;19;20019;-73
2023/04/19 07:54:42;;;;;;;24.27;14.82;;;15.30;87.70;;;;;;7382834;19;20003;-73
2023/04/19 07:57:11;;;;;;;23.08;13.88;;;15.40;87.90;;;;;;7384222;19;20023;-73
2023/04/19 07:59:42;;;;;;;22.52;14.27;;;15.40;88.30;;;;;;7386248;19;20015;-73
2023/04/19 08:02:11;;;;;;;24.65;14.10;;;15.40;88.10;;;;;;7386331;19;20022;-74
2023/04/19 08:04:40;;;;;;;26.13;14.15;;;15.40;88.10;;;;;;7404564;19;20007;-73
2023/04/19 08:07:08;;;;;;;23.90;14.55;;;15.50;88.20;;;;;;7382180;19;20390;-74
2023/04/19 08:09:37;;;;;;;22.70;13.45;;;15.50;87.80;;;;;;7383615;19;20070;-73
2023/04/19 08:12:06;;;;;;;26.58;13.90;;;15.60;87.90;;;;;;7382269;19;20007;-75
2023/04/19 08:14:37;;;;;;;22.98;14.35;;;15.60;87.90;;;;;;7382924;19;20010;-72
2023/04/19 08:17:09;;;;;;;20.77;13.30;;;15.60;87.60;;;;;;7381912;19;20017;-72
2023/04/19 08:19:37;;;;;;;25.15;14.23;;;15.70;87.40;;;;;;7401273;19;20058;-73
2023/04/19 08:22:06;;;;;;;29.73;13.65;;;15.70;87.50;;;;;;7381859;19;20011;-73
2023/04/19 08:24:35;;;;;;;28.48;14.82;;;15.80;87.70;;;;;;7381089;19;20003;-73
2023/04/19 08:27:03;;;;;;;23.90;14.60;;;15.80;87.50;;;;;;7380835;19;20007;-73
2023/04/19 08:29:32;;;;;;;23.98;14.75;;;15.80;87.40;;;;;;7382122;19;20023;-73
2023/04/19 08:32:03;;;;;;;29.48;17.00;;;15.80;87.40;;;;;;7401818;19;20007;-73
2023/04/19 08:34:36;;;;;;;23.20;13.77;;;15.80;87.30;;;;;;7381541;19;19998;-73
2023/04/19 08:37:06;;;;;;;24.10;14.73;;;15.90;87.30;;;;;;7380865;19;20016;-74
2023/04/19 08:39:36;;;;;;;23.73;13.93;;;15.90;87.00;;;;;;7381582;19;20015;-73
2023/04/19 08:42:07;;;;;;;23.55;13.77;;;15.90;86.50;;;;;;7381916;19;19999;-73
2023/04/19 08:44:38;;;;;;;25.92;13.63;;;15.90;86.60;;;;;;7381055;19;20015;-74
2023/04/19 08:47:07;;;;;;;23.80;13.63;;;16.00;86.70;;;;;;7381091;19;20479;-73
2023/04/19 08:49:41;;;;;;;26.17;12.93;;;16.00;86.80;;;;;;7401532;19;20011;-74
2023/04/19 08:52:13;;;;;;;25.60;14.23;;;16.00;86.60;;;;;;7383308;19;19999;-73
2023/04/19 08:54:43;;;;;;;21.77;14.18;;;16.00;86.40;;;;;;7385022;19;20007;-73
2023/04/19 08:57:12;;;;;;;24.02;13.40;;;16.10;86.90;;;;;;7385120;19;20013;-74
2023/04/19 08:59:44;;;;;;;27.58;14.82;;;16.00;86.90;;;;;;7384676;19;20019;-75
2023/04/19 09:02:13;;;;;;;20.95;12.90;;;16.00;86.60;;;;;;7382393;19;20027;-73
2023/04/19 09:04:44;;;;;;;21.25;13.38;;;16.10;87.10;;;;;;7402013;19;20050;-73
2023/04/19 09:07:25;;;;;;;24.90;12.75;;;16.10;86.70;;;;;;7381544;19;20006;-74
2023/04/19 09:10:08;;;;;;;24.33;14.03;;;16.10;86.30;;;;;;7381845;19;20019;-73
2023/04/19 09:12:37;;;;;;;20.10;12.40;;;16.20;86.20;;;;;;7384365;19;20003;-74
2023/04/19 09:15:08;;;;;;;26.27;12.98;;;16.20;85.90;;;;;;7384989;19;20011;-74
2023/04/19 09:17:37;;;;;;;20.98;12.60;;;16.30;86.10;;;;;;7384327;19;20010;-73
2023/04/19 09:20:10;;;;;;;19.90;12.05;;;16.30;85.80;;;;;;7381243;19;20019;-73
2023/04/19 09:22:39;;;;;;;20.45;12.60;;;16.30;85.50;;;;;;7402287;19;20020;-74
2023/04/19 09:25:08;;;;;;;20.83;13.05;;;16.40;85.80;;;;;;7380208;19;20330;-73
2023/04/19 09:27:38;;;;;;;25.67;13.55;;;16.40;86.00;;;;;;7380003;19;20020;-73
2023/04/19 09:30:09;;;;;;;25.65;13.38;;;16.40;86.10;;;;;;7380511;19;20231;-73
2023/04/19 09:32:48;;;;;;;20.92;13.20;;;16.40;86.30;;;;;;7380202;19;20369;-73
2023/04/19 09:35:19;;;;;;;30.83;14.30;;;16.40;86.60;;;;;;7381452;19;20015;-74
2023/04/19 09:38:01;;;;;;;24.23;13.10;;;16.40;85.50;;;;;;7401483;19;20007;-73
2023/04/19 09:40:29;;;;;;;22.52;12.18;;;16.40;85.90;;;;;;7380754;19;20003;-74
2023/04/19 09:42:58;;;;;;;23.00;13.05;;;16.50;85.80;;;;;;7380190;19;20062;-74
2023/04/19 09:45:29;;;;;;;37.28;14.27;;;16.50;85.80;;;;;;7380748;19;20247;-73
2023/04/19 09:48:06;;;;;;;30.80;15.93;;;16.60;86.00;;;;;;7380338;19;20030;-74
2023/04/19 09:50:38;;;;;;;22.50;14.55;;;16.60;86.10;;;;;;7381174;19;20061;-74
2023/04/19 09:53:06;;;;;;;37.55;13.55;;;16.60;86.30;;;;;;7380475;19;20015;-73
2023/04/19 09:55:38;;;;;;;17.10;11.50;;;16.70;85.70;;;;;;7401899;19;20011;-73
2023/04/19 09:58:07;;;;;;;21.30;13.05;;;16.70;85.20;;;;;;7380085;19;20016;-73
2023/04/19 10:00:37;;;;;;;23.30;13.70;;;16.70;85.40;;;;;;7380502;19;20028;-74
2023/04/19 10:03:08;;;;;;;20.38;12.60;;;16.80;85.30;;;;;;7381041;19;20279;-74
2023/04/19 10:05:40;;;;;;;19.77;12.23;;;16.80;85.50;;;;;;7380652;19;20022;-74
2023/04/19 10:08:10;;;;;;;23.08;13.20;;;16.90;85.10;;;;;;7380466;19;20016;-74
2023/04/19 10:10:39;;;;;;;22.90;13.50;;;17.00;85.50;;;;;;7402103;19;20007;-75
2023/04/19 10:13:09;;;;;;;23.90;13.45;;;17.00;85.10;;;;;;7380642;19;20066;-75
2023/04/19 10:15:39;;;;;;;27.10;13.55;;;17.00;84.80;;;;;;7381299;19;20396;-74
2023/04/19 10:18:09;;;;;;;25.23;12.75;;;17.10;84.40;;;;;;7380620;19;20066;-75
2023/04/19 10:20:48;;;;;;;22.00;13.07;;;17.10;85.00;;;;;;7378765;19;20385;-74
2023/04/19 10:23:17;;;;;;;23.15;12.68;;;17.00;85.00;;;;;;7377879;19;20003;-73
2023/04/19 10:25:49;;;;;;;24.67;13.85;;;17.10;84.70;;;;;;7399980;19;20082;-75
2023/04/19 10:28:18;;;;;;;21.48;14.05;;;17.10;83.80;;;;;;7377829;19;20014;-74
2023/04/19 10:30:57;;;;;;;28.70;16.88;;;17.20;83.80;;;;;;7377920;19;19999;-74
2023/04/19 10:33:30;;;;;;;28.17;14.02;;;17.20;84.50;;;;;;7377834;19;20009;-74
2023/04/19 10:36:02;;;;;;;20.42;12.82;;;17.30;84.50;;;;;;7378334;19;20006;-75
2023/04/19 10:38:39;;;;;;;20.48;11.95;;;17.30;83.10;;;;;;7377610;19;20389;-74
2023/04/19 10:41:10;;;;;;;18.55;11.27;;;17.30;83.70;;;;;;7378602;19;20020;-74
2023/04/19 10:43:40;;;;;;;17.25;11.43;;;17.40;82.20;;;;;;7403536;19;20030;-74
2023/04/19 10:46:10;;;;;;;24.10;11.85;;;17.50;82.00;;;;;;7384015;19;20002;-74
2023/04/19 10:48:52;;;;;;;20.50;10.43;;;17.50;82.40;;;;;;7385125;19;20007;-74
2023/04/19 10:51:26;;;;;;;17.02;10.25;;;17.40;80.60;;;;;;7384947;19;20010;-74
2023/04/19 10:54:00;;;;;;;15.45;10.23;;;17.50;81.60;;;;;;7385258;19;20009;-74
2023/04/19 10:57:11;;;;;;;19.92;11.10;;;17.50;82.80;;;;;;7383479;19;20006;-74
2023/04/19 10:59:42;;;;;;;17.25;10.60;;;17.60;81.70;;;;;;7383213;19;20007;-74
2023/04/19 11:02:31;;;;;;;17.70;10.70;;;17.70;80.80;;;;;;7385166;19;20162;-74
2023/04/19 11:05:02;;;;;;;32.20;11.27;;;17.80;79.90;;;;;;7407373;19;20105;-74
2023/04/19 11:07:41;;;;;;;;;;;17.90;80.60;;;;;;7384929;19;19999;-74
2023/04/19 11:10:11;;;;;;;17.23;10.50;;;17.90;80.20;;;;;;7384350;19;19907;-74
2023/04/19 11:12:44;;;;;;;17.02;10.05;;;17.80;81.10;;;;;;7383635;19;20011;-74
2023/04/19 11:15:13;;;;;;;14.82;9.57;;;17.80;81.40;;;;;;7385078;19;20014;-74
2023/04/19 11:17:41;;;;;;;15.75;9.65;;;17.90;80.80;;;;;;7384034;19;20098;-74
2023/04/19 11:20:13;;;;;;;24.55;10.02;;;17.90;80.20;;;;;;7384238;19;20018;-74
2023/04/19 11:22:46;;;;;;;16.17;9.60;;;18.00;80.70;;;;;;7408361;19;20030;-74
2023/04/19 11:25:18;;;;;;;18.80;11.07;;;18.10;80.80;;;;;;7387964;19;20027;-74
2023/04/19 11:27:48;;;;;;;18.67;11.32;;;18.10;79.30;;;;;;7389212;19;20010;-74
2023/04/19 11:30:21;;;;;;;18.48;11.98;;;18.20;79.20;;;;;;7389287;19;20011;-74
2023/04/19 11:32:50;;;;;;;17.40;11.13;;;18.20;79.70;;;;;;7385220;19;20011;-74
2023/04/19 11:35:22;;;;;;;15.85;8.95;;;18.30;79.10;;;;;;7383956;19;20345;-74
2023/04/19 11:37:53;;;;;;;;;;;18.30;80.10;;;;;;7406009;19;20006;-74
2023/04/19 11:40:25;;;;;;;12.00;6.63;;;18.30;79.40;;;;;;7384867;19;19903;-73
2023/04/19 11:42:56;;;;;;;12.48;6.93;;;18.40;78.10;;;;;;7385867;19;20003;-73
2023/04/19 11:45:30;;;;;;;12.45;8.13;;;18.50;77.10;;;;;;7385356;19;20006;-73
2023/04/19 11:47:59;;;;;;;14.07;8.80;;;18.50;77.00;;;;;;7386945;19;20029;-74
2023/04/19 11:50:37;;;;;;;17.42;9.27;;;18.60;77.90;;;;;;7382042;19;20084;-74
2023/04/19 11:53:17;;;;;;;10.57;7.63;;;18.60;77.00;;;;;;7382529;19;20383;-74
2023/04/19 11:55:47;;;;;;;13.35;7.68;;;18.70;77.60;;;;;;7404223;19;20013;-74
2023/04/19 11:58:28;;;;;;;11.98;7.28;;;18.70;76.50;;;;;;7381508;19;20006;-74
2023/04/19 12:00:58;;;;;;;15.18;7.28;;;18.80;75.90;;;;;;7382576;19;20517;-73
2023/04/19 12:03:27;;;;;;;8.98;6.47;;;18.80;75.30;;;;;;7382794;19;20654;-73
2023/04/19 12:05:57;;;;;;;9.93;6.47;;;18.90;76.20;;;;;;7383352;19;20023;-75
2023/04/19 12:08:36;;;;;;;14.27;8.35;;;18.90;75.10;;;;;;7382998;19;20020;-73
2023/04/19 12:11:08;;;;;;;14.20;7.03;;;19.00;74.90;;;;;;7387267;19;20006;-73
2023/04/19 12:13:37;;;;;;;;;;;19.00;72.60;;;;;;7402616;19;20006;-75
2023/04/19 12:16:06;;;;;;;14.15;8.07;;;19.00;74.00;;;;;;7381984;19;20184;-73
2023/04/19 12:18:47;;;;;;;10.90;6.68;;;19.00;73.00;;;;;;7381445;19;20259;-74
2023/04/19 12:21:29;;;;;;;10.23;6.72;;;19.00;72.90;;;;;;7381347;19;20006;-74
2023/04/19 12:24:03;;;;;;;7.47;5.95;;;19.10;73.40;;;;;;7382659;19;20003;-74
2023/04/19 12:26:32;;;;;;;11.85;6.35;;;19.20;73.60;;;;;;7384297;19;20123;-74
2023/04/19 12:29:03;;;;;;;8.10;6.28;;;19.20;72.80;;;;;;7402691;19;20017;-74
2023/04/19 12:31:33;;;;;;;;;;;19.30;73.10;;;;;;7383454;19;20013;-74
2023/04/19 12:34:02;;;;;;;9.82;6.88;;;19.30;71.60;;;;;;7383163;19;19917;-75
2023/04/19 12:36:31;;;;;;;10.15;6.47;;;19.30;73.00;;;;;;7384935;19;20058;-74
2023/04/19 12:39:03;;;;;;;9.55;5.97;;;19.40;72.50;;;;;;7386032;19;20278;-74
2023/04/19 12:41:31;;;;;;;;;;;19.50;72.00;;;;;;7386147;19;20026;-74
2023/04/19 12:44:00;;;;;;;10.77;6.78;;;19.60;72.60;;;;;;7407900;19;19940;-74
2023/04/19 12:46:28;;;;;;;11.07;7.57;;;19.70;72.60;;;;;;7382047;19;20021;-74